sensor_id;sensor_type;location;lat;lon;timestamp;P1;durP1;ratioP1;P2;durP2;ratioP2
32633;SDS011;19043;51.012;5.648;2024-03-23T00:54:30;1.63;;;0.57;;
32633;SDS011;19043;51.012;5.648;2024-03-23T00:56:56;1.42;;;0.50;;
32633;SDS011;19043;51.012;5.648;2024-03-23T00:59:21;2.22;;;0.40;;
32633;SDS011;19043;51.012;5.648;2024-03-23T01:01:47;1.58;;;0.60;;
32633;SDS011;19043;51.012;5.648;2024-03-23T01:04:12;1.58;;;0.50;;
32633;SDS011;19043;51.012;5.648;2024-03-23T01:06:37;0.90;;;0.40;;
32633;SDS011;19043;51.012;5.648;2024-03-23T01:09:03;1.30;;;0.75;;
32633;SDS011;19043;51.012;5.648;2024-03-23T01:11:28;3.95;;;0.80;;
32633;SDS011;19043;51.012;5.648;2024-03-23T01:13:54;0.80;;;0.30;;
32633;SDS011;19043;51.012;5.648;2024-03-23T01:16:21;1.23;;;0.52;;
32633;SDS011;19043;51.012;5.648;2024-03-23T01:18:46;0.52;;;0.32;;
32633;SDS011;19043;51.012;5.648;2024-03-23T01:21:11;0.90;;;0.30;;
32633;SDS011;19043;51.012;5.648;2024-03-23T01:23:37;1.70;;;0.77;;
32633;SDS011;19043;51.012;5.648;2024-03-23T01:26:02;1.73;;;0.50;;
32633;SDS011;19043;51.012;5.648;2024-03-23T01:28:27;2.05;;;0.63;;
32633;SDS011;19043;51.012;5.648;2024-03-23T01:30:53;3.80;;;0.93;;
32633;SDS011;19043;51.012;5.648;2024-03-23T01:33:18;2.00;;;0.83;;
32633;SDS011;19043;51.012;5.648;2024-03-23T01:35:43;1.47;;;0.60;;
32633;SDS011;19043;51.012;5.648;2024-03-23T01:38:09;2.13;;;0.98;;
32633;SDS011;19043;51.012;5.648;2024-03-23T01:40:34;2.23;;;0.83;;
32633;SDS011;19043;51.012;5.648;2024-03-23T01:43:08;5.03;;;0.70;;
32633;SDS011;19043;51.012;5.648;2024-03-23T01:45:34;2.35;;;0.57;;
32633;SDS011;19043;51.012;5.648;2024-03-23T01:47:59;0.75;;;0.32;;
32633;SDS011;19043;51.012;5.648;2024-03-23T01:50:25;1.00;;;0.50;;
32633;SDS011;19043;51.012;5.648;2024-03-23T01:52:50;1.05;;;0.45;;
32633;SDS011;19043;51.012;5.648;2024-03-23T01:55:16;1.27;;;0.65;;
32633;SDS011;19043;51.012;5.648;2024-03-23T01:57:41;1.45;;;0.60;;
32633;SDS011;19043;51.012;5.648;2024-03-23T02:00:06;1.13;;;0.50;;
32633;SDS011;19043;51.012;5.648;2024-03-23T02:02:32;1.30;;;0.63;;
32633;SDS011;19043;51.012;5.648;2024-03-23T02:04:57;3.78;;;1.02;;
32633;SDS011;19043;51.012;5.648;2024-03-23T02:07:22;0.75;;;0.35;;
32633;SDS011;19043;51.012;5.648;2024-03-23T02:09:48;2.33;;;0.60;;
32633;SDS011;19043;51.012;5.648;2024-03-23T02:12:14;3.05;;;0.77;;
32633;SDS011;19043;51.012;5.648;2024-03-23T02:14:40;1.45;;;0.55;;
32633;SDS011;19043;51.012;5.648;2024-03-23T02:17:05;0.87;;;0.37;;
32633;SDS011;19043;51.012;5.648;2024-03-23T02:19:30;2.97;;;0.57;;
32633;SDS011;19043;51.012;5.648;2024-03-23T02:21:55;1.00;;;0.47;;
32633;SDS011;19043;51.012;5.648;2024-03-23T02:24:21;1.93;;;0.80;;
32633;SDS011;19043;51.012;5.648;2024-03-23T02:26:46;2.45;;;1.02;;
32633;SDS011;19043;51.012;5.648;2024-03-23T02:29:13;1.20;;;0.47;;
32633;SDS011;19043;51.012;5.648;2024-03-23T02:31:38;1.27;;;0.40;;
32633;SDS011;19043;51.012;5.648;2024-03-23T02:34:03;1.50;;;0.50;;
32633;SDS011;19043;51.012;5.648;2024-03-23T02:36:29;1.20;;;0.52;;
32633;SDS011;19043;51.012;5.648;2024-03-23T02:38:56;0.77;;;0.60;;
32633;SDS011;19043;51.012;5.648;2024-03-23T02:41:21;1.55;;;0.60;;
32633;SDS011;19043;51.012;5.648;2024-03-23T02:43:49;0.80;;;0.35;;
32633;SDS011;19043;51.012;5.648;2024-03-23T02:46:14;1.52;;;0.73;;
32633;SDS011;19043;51.012;5.648;2024-03-23T02:48:40;1.00;;;0.50;;
32633;SDS011;19043;51.012;5.648;2024-03-23T02:51:05;1.90;;;0.70;;
32633;SDS011;19043;51.012;5.648;2024-03-23T02:53:30;3.97;;;0.60;;
32633;SDS011;19043;51.012;5.648;2024-03-23T02:55:57;1.20;;;0.47;;
32633;SDS011;19043;51.012;5.648;2024-03-23T02:58:22;1.33;;;0.38;;
32633;SDS011;19043;51.012;5.648;2024-03-23T03:00:47;1.83;;;0.50;;
32633;SDS011;19043;51.012;5.648;2024-03-23T03:03:13;1.97;;;0.40;;
32633;SDS011;19043;51.012;5.648;2024-03-23T03:05:38;1.88;;;0.80;;
32633;SDS011;19043;51.012;5.648;2024-03-23T03:08:03;1.27;;;0.50;;
32633;SDS011;19043;51.012;5.648;2024-03-23T03:10:29;1.10;;;0.40;;
32633;SDS011;19043;51.012;5.648;2024-03-23T03:12:55;3.35;;;0.90;;
32633;SDS011;19043;51.012;5.648;2024-03-23T03:15:20;1.40;;;0.50;;
32633;SDS011;19043;51.012;5.648;2024-03-23T03:17:46;0.85;;;0.35;;
32633;SDS011;19043;51.012;5.648;2024-03-23T03:20:11;3.30;;;0.50;;
32633;SDS011;19043;51.012;5.648;2024-03-23T03:22:38;2.80;;;1.15;;
32633;SDS011;19043;51.012;5.648;2024-03-23T03:25:03;1.55;;;0.60;;
32633;SDS011;19043;51.012;5.648;2024-03-23T03:27:29;1.08;;;0.40;;
32633;SDS011;19043;51.012;5.648;2024-03-23T03:29:54;2.50;;;0.70;;
32633;SDS011;19043;51.012;5.648;2024-03-23T03:32:19;1.33;;;0.60;;
32633;SDS011;19043;51.012;5.648;2024-03-23T03:34:45;1.57;;;0.70;;
32633;SDS011;19043;51.012;5.648;2024-03-23T03:37:10;1.65;;;0.57;;
32633;SDS011;19043;51.012;5.648;2024-03-23T03:39:35;2.33;;;0.77;;
32633;SDS011;19043;51.012;5.648;2024-03-23T03:42:00;1.38;;;0.50;;
32633;SDS011;19043;51.012;5.648;2024-03-23T03:44:26;1.92;;;0.60;;
32633;SDS011;19043;51.012;5.648;2024-03-23T03:46:52;2.50;;;0.87;;
32633;SDS011;19043;51.012;5.648;2024-03-23T03:49:17;1.67;;;0.93;;
32633;SDS011;19043;51.012;5.648;2024-03-23T03:51:42;2.30;;;1.33;;
32633;SDS011;19043;51.012;5.648;2024-03-23T03:54:07;1.73;;;0.60;;
32633;SDS011;19043;51.012;5.648;2024-03-23T03:56:32;1.23;;;0.50;;
32633;SDS011;19043;51.012;5.648;2024-03-23T03:58:58;1.90;;;0.82;;
32633;SDS011;19043;51.012;5.648;2024-03-23T04:01:23;2.07;;;0.83;;
32633;SDS011;19043;51.012;5.648;2024-03-23T04:03:48;1.88;;;0.80;;
32633;SDS011;19043;51.012;5.648;2024-03-23T04:06:20;2.27;;;1.10;;
32633;SDS011;19043;51.012;5.648;2024-03-23T04:08:45;1.27;;;0.60;;
32633;SDS011;19043;51.012;5.648;2024-03-23T04:11:10;1.75;;;0.70;;
32633;SDS011;19043;51.012;5.648;2024-03-23T04:13:35;2.88;;;1.27;;
32633;SDS011;19043;51.012;5.648;2024-03-23T04:16:01;2.78;;;1.13;;
32633;SDS011;19043;51.012;5.648;2024-03-23T04:18:26;2.50;;;0.60;;
32633;SDS011;19043;51.012;5.648;2024-03-23T04:20:51;1.63;;;0.77;;
32633;SDS011;19043;51.012;5.648;2024-03-23T04:23:17;1.48;;;0.60;;
32633;SDS011;19043;51.012;5.648;2024-03-23T04:25:42;1.02;;;0.43;;
32633;SDS011;19043;51.012;5.648;2024-03-23T04:28:07;2.65;;;1.05;;
32633;SDS011;19043;51.012;5.648;2024-03-23T04:30:33;1.13;;;0.65;;
32633;SDS011;19043;51.012;5.648;2024-03-23T04:32:58;1.67;;;0.67;;
32633;SDS011;19043;51.012;5.648;2024-03-23T04:35:23;0.90;;;0.43;;
32633;SDS011;19043;51.012;5.648;2024-03-23T04:37:50;2.08;;;0.55;;
32633;SDS011;19043;51.012;5.648;2024-03-23T04:40:17;1.35;;;0.70;;
32633;SDS011;19043;51.012;5.648;2024-03-23T04:42:42;2.00;;;1.00;;
32633;SDS011;19043;51.012;5.648;2024-03-23T04:45:07;1.83;;;0.75;;
32633;SDS011;19043;51.012;5.648;2024-03-23T04:47:33;3.33;;;1.20;;
32633;SDS011;19043;51.012;5.648;2024-03-23T04:50:00;1.40;;;0.88;;
32633;SDS011;19043;51.012;5.648;2024-03-23T04:52:26;2.55;;;0.80;;
32633;SDS011;19043;51.012;5.648;2024-03-23T04:54:52;1.90;;;0.80;;
32633;SDS011;19043;51.012;5.648;2024-03-23T04:57:17;1.15;;;0.45;;
32633;SDS011;19043;51.012;5.648;2024-03-23T04:59:42;2.10;;;0.82;;
32633;SDS011;19043;51.012;5.648;2024-03-23T05:02:07;1.83;;;0.65;;
32633;SDS011;19043;51.012;5.648;2024-03-23T05:04:33;2.97;;;1.10;;
32633;SDS011;19043;51.012;5.648;2024-03-23T05:06:58;0.80;;;0.40;;
32633;SDS011;19043;51.012;5.648;2024-03-23T05:09:23;1.80;;;0.80;;
32633;SDS011;19043;51.012;5.648;2024-03-23T05:11:48;2.10;;;0.82;;
32633;SDS011;19043;51.012;5.648;2024-03-23T05:14:13;2.20;;;1.00;;
32633;SDS011;19043;51.012;5.648;2024-03-23T05:16:39;2.60;;;1.10;;
32633;SDS011;19043;51.012;5.648;2024-03-23T05:19:04;2.65;;;1.63;;
32633;SDS011;19043;51.012;5.648;2024-03-23T05:21:29;1.75;;;0.82;;
32633;SDS011;19043;51.012;5.648;2024-03-23T05:23:54;2.60;;;1.45;;
32633;SDS011;19043;51.012;5.648;2024-03-23T05:26:21;3.15;;;1.40;;
32633;SDS011;19043;51.012;5.648;2024-03-23T05:28:46;3.22;;;1.38;;
32633;SDS011;19043;51.012;5.648;2024-03-23T05:31:12;1.15;;;0.60;;
32633;SDS011;19043;51.012;5.648;2024-03-23T05:33:37;3.07;;;1.20;;
32633;SDS011;19043;51.012;5.648;2024-03-23T05:36:05;2.40;;;1.30;;
32633;SDS011;19043;51.012;5.648;2024-03-23T05:38:30;2.20;;;1.02;;
32633;SDS011;19043;51.012;5.648;2024-03-23T05:40:56;5.30;;;1.00;;
32633;SDS011;19043;51.012;5.648;2024-03-23T05:43:21;2.63;;;1.23;;
32633;SDS011;19043;51.012;5.648;2024-03-23T05:45:52;2.83;;;1.13;;
32633;SDS011;19043;51.012;5.648;2024-03-23T05:48:18;3.00;;;1.52;;
32633;SDS011;19043;51.012;5.648;2024-03-23T05:50:43;1.70;;;0.95;;
32633;SDS011;19043;51.012;5.648;2024-03-23T05:53:08;4.47;;;1.70;;
32633;SDS011;19043;51.012;5.648;2024-03-23T05:55:34;2.63;;;1.25;;
32633;SDS011;19043;51.012;5.648;2024-03-23T05:57:59;5.18;;;1.90;;
32633;SDS011;19043;51.012;5.648;2024-03-23T06:00:25;2.60;;;1.23;;
32633;SDS011;19043;51.012;5.648;2024-03-23T06:02:51;4.75;;;2.53;;
32633;SDS011;19043;51.012;5.648;2024-03-23T06:05:17;2.70;;;1.42;;
32633;SDS011;19043;51.012;5.648;2024-03-23T06:07:42;3.80;;;1.65;;
32633;SDS011;19043;51.012;5.648;2024-03-23T06:10:07;4.50;;;1.40;;
32633;SDS011;19043;51.012;5.648;2024-03-23T06:12:32;3.17;;;1.45;;
32633;SDS011;19043;51.012;5.648;2024-03-23T06:14:58;4.93;;;1.67;;
32633;SDS011;19043;51.012;5.648;2024-03-23T06:17:23;4.47;;;1.63;;
32633;SDS011;19043;51.012;5.648;2024-03-23T06:19:48;2.25;;;1.05;;
32633;SDS011;19043;51.012;5.648;2024-03-23T06:22:14;3.15;;;1.40;;
32633;SDS011;19043;51.012;5.648;2024-03-23T06:24:39;1.90;;;1.08;;
32633;SDS011;19043;51.012;5.648;2024-03-23T06:27:04;3.55;;;1.15;;
32633;SDS011;19043;51.012;5.648;2024-03-23T06:29:30;1.38;;;0.68;;
32633;SDS011;19043;51.012;5.648;2024-03-23T06:31:55;3.28;;;1.23;;
32633;SDS011;19043;51.012;5.648;2024-03-23T06:34:20;2.42;;;1.17;;
32633;SDS011;19043;51.012;5.648;2024-03-23T06:36:47;3.38;;;0.68;;
32633;SDS011;19043;51.012;5.648;2024-03-23T06:39:12;1.70;;;0.80;;
32633;SDS011;19043;51.012;5.648;2024-03-23T06:41:40;1.63;;;0.68;;
32633;SDS011;19043;51.012;5.648;2024-03-23T06:44:05;1.58;;;0.82;;
32633;SDS011;19043;51.012;5.648;2024-03-23T06:46:30;2.70;;;1.30;;
32633;SDS011;19043;51.012;5.648;2024-03-23T06:48:56;2.95;;;1.58;;
32633;SDS011;19043;51.012;5.648;2024-03-23T06:51:21;1.87;;;1.07;;
32633;SDS011;19043;51.012;5.648;2024-03-23T06:53:46;3.80;;;1.27;;
32633;SDS011;19043;51.012;5.648;2024-03-23T06:56:12;2.30;;;1.03;;
32633;SDS011;19043;51.012;5.648;2024-03-23T06:58:37;3.42;;;2.03;;
32633;SDS011;19043;51.012;5.648;2024-03-23T07:01:02;2.50;;;1.13;;
32633;SDS011;19043;51.012;5.648;2024-03-23T07:03:27;2.40;;;1.27;;
32633;SDS011;19043;51.012;5.648;2024-03-23T07:05:53;4.07;;;1.80;;
32633;SDS011;19043;51.012;5.648;2024-03-23T07:08:22;3.42;;;1.48;;
32633;SDS011;19043;51.012;5.648;2024-03-23T07:10:47;3.83;;;1.70;;
32633;SDS011;19043;51.012;5.648;2024-03-23T07:13:13;2.53;;;1.17;;
32633;SDS011;19043;51.012;5.648;2024-03-23T07:15:38;3.03;;;1.42;;
32633;SDS011;19043;51.012;5.648;2024-03-23T07:18:03;3.80;;;1.75;;
32633;SDS011;19043;51.012;5.648;2024-03-23T07:20:28;3.95;;;1.92;;
32633;SDS011;19043;51.012;5.648;2024-03-23T07:22:56;4.40;;;1.80;;
32633;SDS011;19043;51.012;5.648;2024-03-23T07:25:21;3.33;;;2.03;;
32633;SDS011;19043;51.012;5.648;2024-03-23T07:27:48;3.20;;;1.58;;
32633;SDS011;19043;51.012;5.648;2024-03-23T07:30:13;5.63;;;1.75;;
32633;SDS011;19043;51.012;5.648;2024-03-23T07:32:38;4.53;;;1.95;;
32633;SDS011;19043;51.012;5.648;2024-03-23T07:35:04;3.00;;;1.88;;
32633;SDS011;19043;51.012;5.648;2024-03-23T07:37:29;4.07;;;1.50;;
32633;SDS011;19043;51.012;5.648;2024-03-23T07:39:54;5.32;;;1.42;;
32633;SDS011;19043;51.012;5.648;2024-03-23T07:42:20;1.87;;;1.03;;
32633;SDS011;19043;51.012;5.648;2024-03-23T07:44:45;3.30;;;1.92;;
32633;SDS011;19043;51.012;5.648;2024-03-23T07:47:11;3.10;;;1.50;;
32633;SDS011;19043;51.012;5.648;2024-03-23T07:49:37;3.17;;;1.15;;
32633;SDS011;19043;51.012;5.648;2024-03-23T07:52:02;3.10;;;1.63;;
32633;SDS011;19043;51.012;5.648;2024-03-23T07:54:27;3.53;;;1.20;;
32633;SDS011;19043;51.012;5.648;2024-03-23T07:56:53;2.22;;;1.17;;
32633;SDS011;19043;51.012;5.648;2024-03-23T07:59:19;4.00;;;1.25;;
32633;SDS011;19043;51.012;5.648;2024-03-23T08:01:44;3.60;;;1.20;;
32633;SDS011;19043;51.012;5.648;2024-03-23T08:04:10;6.33;;;2.00;;
32633;SDS011;19043;51.012;5.648;2024-03-23T08:06:35;2.30;;;1.23;;
32633;SDS011;19043;51.012;5.648;2024-03-23T08:09:00;3.35;;;1.15;;
32633;SDS011;19043;51.012;5.648;2024-03-23T08:11:26;3.75;;;1.58;;
32633;SDS011;19043;51.012;5.648;2024-03-23T08:13:51;5.65;;;1.42;;
32633;SDS011;19043;51.012;5.648;2024-03-23T08:16:17;7.63;;;1.73;;
32633;SDS011;19043;51.012;5.648;2024-03-23T08:18:42;2.87;;;0.87;;
32633;SDS011;19043;51.012;5.648;2024-03-23T08:21:07;4.72;;;1.20;;
32633;SDS011;19043;51.012;5.648;2024-03-23T08:23:33;3.42;;;1.23;;
32633;SDS011;19043;51.012;5.648;2024-03-23T08:25:59;3.65;;;0.85;;
32633;SDS011;19043;51.012;5.648;2024-03-23T08:28:25;2.20;;;0.93;;
32633;SDS011;19043;51.012;5.648;2024-03-23T08:30:50;1.90;;;0.75;;
32633;SDS011;19043;51.012;5.648;2024-03-23T08:33:16;3.72;;;1.23;;
32633;SDS011;19043;51.012;5.648;2024-03-23T08:35:41;1.83;;;0.65;;
32633;SDS011;19043;51.012;5.648;2024-03-23T08:38:07;1.10;;;0.57;;
32633;SDS011;19043;51.012;5.648;2024-03-23T08:40:32;1.75;;;0.65;;
32633;SDS011;19043;51.012;5.648;2024-03-23T08:42:57;2.97;;;1.00;;
32633;SDS011;19043;51.012;5.648;2024-03-23T08:45:23;2.13;;;1.00;;
32633;SDS011;19043;51.012;5.648;2024-03-23T08:47:49;1.52;;;0.70;;
32633;SDS011;19043;51.012;5.648;2024-03-23T08:50:14;1.80;;;0.57;;
32633;SDS011;19043;51.012;5.648;2024-03-23T08:52:39;2.00;;;0.30;;
32633;SDS011;19043;51.012;5.648;2024-03-23T08:55:05;2.35;;;1.10;;
32633;SDS011;19043;51.012;5.648;2024-03-23T08:57:30;3.33;;;0.85;;
32633;SDS011;19043;51.012;5.648;2024-03-23T08:59:55;1.53;;;0.60;;
32633;SDS011;19043;51.012;5.648;2024-03-23T09:02:20;2.83;;;1.20;;
32633;SDS011;19043;51.012;5.648;2024-03-23T09:04:46;1.98;;;0.73;;
32633;SDS011;19043;51.012;5.648;2024-03-23T09:07:11;1.00;;;0.43;;
32633;SDS011;19043;51.012;5.648;2024-03-23T09:09:39;1.55;;;0.55;;
32633;SDS011;19043;51.012;5.648;2024-03-23T09:12:05;1.33;;;0.52;;
32633;SDS011;19043;51.012;5.648;2024-03-23T09:14:30;0.60;;;0.40;;
32633;SDS011;19043;51.012;5.648;2024-03-23T09:16:55;1.85;;;0.63;;
32633;SDS011;19043;51.012;5.648;2024-03-23T09:19:21;1.30;;;0.37;;
32633;SDS011;19043;51.012;5.648;2024-03-23T09:21:46;1.20;;;0.50;;
32633;SDS011;19043;51.012;5.648;2024-03-23T09:24:11;1.40;;;0.50;;
32633;SDS011;19043;51.012;5.648;2024-03-23T09:26:36;1.07;;;0.40;;
32633;SDS011;19043;51.012;5.648;2024-03-23T09:29:02;1.27;;;0.52;;
32633;SDS011;19043;51.012;5.648;2024-03-23T09:31:27;1.23;;;0.73;;
32633;SDS011;19043;51.012;5.648;2024-03-23T09:33:52;0.80;;;0.30;;
32633;SDS011;19043;51.012;5.648;2024-03-23T09:36:17;1.15;;;0.43;;
32633;SDS011;19043;51.012;5.648;2024-03-23T09:38:43;1.80;;;0.40;;
32633;SDS011;19043;51.012;5.648;2024-03-23T09:41:08;3.83;;;0.60;;
32633;SDS011;19043;51.012;5.648;2024-03-23T09:43:34;2.72;;;0.70;;
32633;SDS011;19043;51.012;5.648;2024-03-23T09:45:59;1.90;;;0.40;;
32633;SDS011;19043;51.012;5.648;2024-03-23T09:48:24;2.72;;;0.73;;
32633;SDS011;19043;51.012;5.648;2024-03-23T09:50:50;3.47;;;0.60;;
32633;SDS011;19043;51.012;5.648;2024-03-23T09:53:15;1.83;;;0.40;;
32633;SDS011;19043;51.012;5.648;2024-03-23T09:55:41;1.33;;;0.63;;
32633;SDS011;19043;51.012;5.648;2024-03-23T09:58:06;1.02;;;0.50;;
32633;SDS011;19043;51.012;5.648;2024-03-23T10:00:34;1.42;;;0.32;;
32633;SDS011;19043;51.012;5.648;2024-03-23T10:02:59;4.50;;;0.70;;
32633;SDS011;19043;51.012;5.648;2024-03-23T10:05:27;1.88;;;0.93;;
32633;SDS011;19043;51.012;5.648;2024-03-23T10:07:53;1.15;;;0.45;;
32633;SDS011;19043;51.012;5.648;2024-03-23T10:10:19;3.20;;;1.00;;
32633;SDS011;19043;51.012;5.648;2024-03-23T10:12:48;1.85;;;0.82;;
32633;SDS011;19043;51.012;5.648;2024-03-23T10:15:20;2.33;;;0.70;;
32633;SDS011;19043;51.012;5.648;2024-03-23T10:17:46;0.82;;;0.47;;
32633;SDS011;19043;51.012;5.648;2024-03-23T10:20:11;1.10;;;0.60;;
32633;SDS011;19043;51.012;5.648;2024-03-23T10:22:39;0.70;;;0.35;;
32633;SDS011;19043;51.012;5.648;2024-03-23T10:25:08;2.28;;;0.40;;
32633;SDS011;19043;51.012;5.648;2024-03-23T10:27:33;0.35;;;0.20;;
32633;SDS011;19043;51.012;5.648;2024-03-23T10:30:08;0.73;;;0.45;;
32633;SDS011;19043;51.012;5.648;2024-03-23T10:32:33;2.83;;;0.80;;
32633;SDS011;19043;51.012;5.648;2024-03-23T10:35:13;1.45;;;0.43;;
32633;SDS011;19043;51.012;5.648;2024-03-23T10:37:38;1.25;;;0.38;;
32633;SDS011;19043;51.012;5.648;2024-03-23T10:40:03;1.17;;;0.50;;
32633;SDS011;19043;51.012;5.648;2024-03-23T10:42:29;0.60;;;0.30;;
32633;SDS011;19043;51.012;5.648;2024-03-23T10:44:55;0.82;;;0.20;;
32633;SDS011;19043;51.012;5.648;2024-03-23T10:47:21;1.77;;;0.75;;
32633;SDS011;19043;51.012;5.648;2024-03-23T10:49:46;1.73;;;0.50;;
32633;SDS011;19043;51.012;5.648;2024-03-23T10:52:13;2.00;;;0.50;;
32633;SDS011;19043;51.012;5.648;2024-03-23T10:54:38;3.00;;;0.75;;
32633;SDS011;19043;51.012;5.648;2024-03-23T10:57:06;1.10;;;0.32;;
32633;SDS011;19043;51.012;5.648;2024-03-23T10:59:33;1.23;;;0.45;;
32633;SDS011;19043;51.012;5.648;2024-03-23T11:01:59;1.90;;;0.63;;
32633;SDS011;19043;51.012;5.648;2024-03-23T11:04:31;1.48;;;0.30;;
32633;SDS011;19043;51.012;5.648;2024-03-23T11:06:57;1.25;;;0.20;;
32633;SDS011;19043;51.012;5.648;2024-03-23T11:09:41;0.10;;;0.10;;
32633;SDS011;19043;51.012;5.648;2024-03-23T11:14:51;0.15;;;0.10;;
32633;SDS011;19043;51.012;5.648;2024-03-23T11:17:20;0.20;;;0.05;;
32633;SDS011;19043;51.012;5.648;2024-03-23T11:19:52;0.25;;;0.10;;
32633;SDS011;19043;51.012;5.648;2024-03-23T11:22:35;0.13;;;0.10;;
32633;SDS011;19043;51.012;5.648;2024-03-23T11:25:21;0.08;;;0.08;;
32633;SDS011;19043;51.012;5.648;2024-03-23T11:27:50;0.10;;;0.10;;
32633;SDS011;19043;51.012;5.648;2024-03-23T11:30:19;1.20;;;0.40;;
32633;SDS011;19043;51.012;5.648;2024-03-23T11:32:45;2.72;;;0.32;;
32633;SDS011;19043;51.012;5.648;2024-03-23T11:35:24;0.90;;;0.20;;
32633;SDS011;19043;51.012;5.648;2024-03-23T11:38:01;0.38;;;0.10;;
32633;SDS011;19043;51.012;5.648;2024-03-23T11:40:26;0.43;;;0.17;;
32633;SDS011;19043;51.012;5.648;2024-03-23T11:42:55;0.43;;;0.20;;
32633;SDS011;19043;51.012;5.648;2024-03-23T11:45:20;1.38;;;0.20;;
32633;SDS011;19043;51.012;5.648;2024-03-23T11:47:45;0.63;;;0.30;;
32633;SDS011;19043;51.012;5.648;2024-03-23T11:50:16;0.55;;;0.25;;
32633;SDS011;19043;51.012;5.648;2024-03-23T11:52:43;1.05;;;0.47;;
32633;SDS011;19043;51.012;5.648;2024-03-23T11:55:09;1.27;;;0.37;;
32633;SDS011;19043;51.012;5.648;2024-03-23T11:57:34;0.90;;;0.28;;
32633;SDS011;19043;51.012;5.648;2024-03-23T11:59:59;1.33;;;0.40;;
32633;SDS011;19043;51.012;5.648;2024-03-23T12:02:25;1.83;;;0.77;;
32633;SDS011;19043;51.012;5.648;2024-03-23T12:04:50;1.00;;;0.37;;
32633;SDS011;19043;51.012;5.648;2024-03-23T12:07:19;0.95;;;0.40;;
32633;SDS011;19043;51.012;5.648;2024-03-23T12:09:45;1.08;;;0.50;;
32633;SDS011;19043;51.012;5.648;2024-03-23T12:12:14;1.98;;;0.75;;
32633;SDS011;19043;51.012;5.648;2024-03-23T12:14:42;0.50;;;0.20;;
32633;SDS011;19043;51.012;5.648;2024-03-23T12:17:11;0.88;;;0.43;;
32633;SDS011;19043;51.012;5.648;2024-03-23T12:19:37;0.32;;;0.17;;
32633;SDS011;19043;51.012;5.648;2024-03-23T12:22:03;1.20;;;0.43;;
32633;SDS011;19043;51.012;5.648;2024-03-23T12:24:28;0.63;;;0.32;;
32633;SDS011;19043;51.012;5.648;2024-03-23T12:26:54;1.85;;;0.30;;
32633;SDS011;19043;51.012;5.648;2024-03-23T12:29:20;0.60;;;0.20;;
32633;SDS011;19043;51.012;5.648;2024-03-23T12:31:45;1.00;;;0.40;;
32633;SDS011;19043;51.012;5.648;2024-03-23T12:34:10;0.70;;;0.20;;
32633;SDS011;19043;51.012;5.648;2024-03-23T12:36:35;0.60;;;0.20;;
32633;SDS011;19043;51.012;5.648;2024-03-23T12:39:01;0.57;;;0.25;;
32633;SDS011;19043;51.012;5.648;2024-03-23T12:41:26;0.20;;;0.10;;
32633;SDS011;19043;51.012;5.648;2024-03-23T12:43:51;0.30;;;0.20;;
32633;SDS011;19043;51.012;5.648;2024-03-23T12:46:16;0.17;;;0.13;;
32633;SDS011;19043;51.012;5.648;2024-03-23T12:48:44;0.50;;;0.30;;
32633;SDS011;19043;51.012;5.648;2024-03-23T12:51:09;0.73;;;0.20;;
32633;SDS011;19043;51.012;5.648;2024-03-23T12:53:34;0.50;;;0.20;;
32633;SDS011;19043;51.012;5.648;2024-03-23T12:55:59;0.43;;;0.10;;
32633;SDS011;19043;51.012;5.648;2024-03-23T12:58:25;1.00;;;0.38;;
32633;SDS011;19043;51.012;5.648;2024-03-23T13:00:50;0.50;;;0.20;;
32633;SDS011;19043;51.012;5.648;2024-03-23T13:03:15;1.00;;;0.40;;
32633;SDS011;19043;51.012;5.648;2024-03-23T13:05:41;0.45;;;0.20;;
32633;SDS011;19043;51.012;5.648;2024-03-23T13:08:06;1.38;;;0.30;;
32633;SDS011;19043;51.012;5.648;2024-03-23T13:10:32;0.88;;;0.30;;
32633;SDS011;19043;51.012;5.648;2024-03-23T13:12:57;2.70;;;0.40;;
32633;SDS011;19043;51.012;5.648;2024-03-23T13:15:23;2.97;;;0.50;;
32633;SDS011;19043;51.012;5.648;2024-03-23T13:17:48;2.20;;;0.47;;
32633;SDS011;19043;51.012;5.648;2024-03-23T13:20:13;2.73;;;0.53;;
32633;SDS011;19043;51.012;5.648;2024-03-23T13:22:40;0.43;;;0.20;;
32633;SDS011;19043;51.012;5.648;2024-03-23T13:25:05;1.95;;;0.35;;
32633;SDS011;19043;51.012;5.648;2024-03-23T13:27:30;1.13;;;0.30;;
32633;SDS011;19043;51.012;5.648;2024-03-23T13:29:55;0.43;;;0.20;;
32633;SDS011;19043;51.012;5.648;2024-03-23T13:32:21;1.10;;;0.53;;
32633;SDS011;19043;51.012;5.648;2024-03-23T13:34:46;1.13;;;0.40;;
32633;SDS011;19043;51.012;5.648;2024-03-23T13:37:15;1.00;;;0.47;;
32633;SDS011;19043;51.012;5.648;2024-03-23T13:39:40;1.38;;;0.50;;
32633;SDS011;19043;51.012;5.648;2024-03-23T13:42:07;1.67;;;0.77;;
32633;SDS011;19043;51.012;5.648;2024-03-23T13:44:34;2.50;;;1.02;;
32633;SDS011;19043;51.012;5.648;2024-03-23T13:46:59;0.85;;;0.40;;
32633;SDS011;19043;51.012;5.648;2024-03-23T13:49:28;2.28;;;0.63;;
32633;SDS011;19043;51.012;5.648;2024-03-23T13:51:54;1.30;;;0.52;;
32633;SDS011;19043;51.012;5.648;2024-03-23T13:54:19;2.45;;;0.93;;
32633;SDS011;19043;51.012;5.648;2024-03-23T13:56:45;0.63;;;0.30;;
32633;SDS011;19043;51.012;5.648;2024-03-23T13:59:10;1.30;;;0.43;;
32633;SDS011;19043;51.012;5.648;2024-03-23T14:01:35;0.73;;;0.22;;
32633;SDS011;19043;51.012;5.648;2024-03-23T14:04:01;1.25;;;0.47;;
32633;SDS011;19043;51.012;5.648;2024-03-23T14:06:26;1.30;;;0.52;;
32633;SDS011;19043;51.012;5.648;2024-03-23T14:08:51;1.33;;;0.40;;
32633;SDS011;19043;51.012;5.648;2024-03-23T14:11:17;0.77;;;0.30;;
32633;SDS011;19043;51.012;5.648;2024-03-23T14:13:43;3.58;;;0.60;;
32633;SDS011;19043;51.012;5.648;2024-03-23T14:16:08;2.40;;;0.77;;
32633;SDS011;19043;51.012;5.648;2024-03-23T14:18:33;2.37;;;0.70;;
32633;SDS011;19043;51.012;5.648;2024-03-23T14:20:59;0.93;;;0.52;;
32633;SDS011;19043;51.012;5.648;2024-03-23T14:23:25;1.02;;;0.30;;
32633;SDS011;19043;51.012;5.648;2024-03-23T14:25:54;0.93;;;0.30;;
32633;SDS011;19043;51.012;5.648;2024-03-23T14:28:20;0.98;;;0.50;;
32633;SDS011;19043;51.012;5.648;2024-03-23T14:30:45;1.27;;;0.45;;
32633;SDS011;19043;51.012;5.648;2024-03-23T14:33:10;1.60;;;0.70;;
32633;SDS011;19043;51.012;5.648;2024-03-23T14:35:35;1.07;;;0.40;;
32633;SDS011;19043;51.012;5.648;2024-03-23T14:38:01;0.55;;;0.30;;
32633;SDS011;19043;51.012;5.648;2024-03-23T14:40:27;1.13;;;0.50;;
32633;SDS011;19043;51.012;5.648;2024-03-23T14:42:52;1.42;;;0.65;;
32633;SDS011;19043;51.012;5.648;2024-03-23T14:45:18;0.73;;;0.40;;
32633;SDS011;19043;51.012;5.648;2024-03-23T14:47:43;1.47;;;0.50;;
32633;SDS011;19043;51.012;5.648;2024-03-23T14:50:08;1.73;;;0.45;;
32633;SDS011;19043;51.012;5.648;2024-03-23T14:52:36;1.02;;;0.30;;
32633;SDS011;19043;51.012;5.648;2024-03-23T14:55:02;1.33;;;0.57;;
32633;SDS011;19043;51.012;5.648;2024-03-23T14:57:27;0.85;;;0.32;;
32633;SDS011;19043;51.012;5.648;2024-03-23T14:59:54;0.40;;;0.13;;
32633;SDS011;19043;51.012;5.648;2024-03-23T15:02:19;0.43;;;0.22;;
32633;SDS011;19043;51.012;5.648;2024-03-23T15:04:44;0.45;;;0.20;;
32633;SDS011;19043;51.012;5.648;2024-03-23T15:07:10;0.85;;;0.50;;
32633;SDS011;19043;51.012;5.648;2024-03-23T15:09:35;1.15;;;0.55;;
32633;SDS011;19043;51.012;5.648;2024-03-23T15:12:00;1.88;;;0.50;;
32633;SDS011;19043;51.012;5.648;2024-03-23T15:14:25;0.70;;;0.30;;
32633;SDS011;19043;51.012;5.648;2024-03-23T15:16:50;0.63;;;0.33;;
32633;SDS011;19043;51.012;5.648;2024-03-23T15:19:17;1.45;;;0.40;;
32633;SDS011;19043;51.012;5.648;2024-03-23T15:21:43;0.88;;;0.40;;
32633;SDS011;19043;51.012;5.648;2024-03-23T15:24:08;0.45;;;0.25;;
32633;SDS011;19043;51.012;5.648;2024-03-23T15:26:36;0.75;;;0.30;;
32633;SDS011;19043;51.012;5.648;2024-03-23T15:29:01;0.85;;;0.40;;
32633;SDS011;19043;51.012;5.648;2024-03-23T15:31:26;1.17;;;0.70;;
32633;SDS011;19043;51.012;5.648;2024-03-23T15:33:51;0.67;;;0.20;;
32633;SDS011;19043;51.012;5.648;2024-03-23T15:36:17;0.75;;;0.40;;